Time;durP1;ratioP1;P1;durP2;ratioP2;P2;SDS_P1;SDS_P2;PMS_P1;PMS_P2;Temp;Humidity;BMP_temperature;BMP_pressure;BME280_temperature;BME280_humidity;BME280_pressure;Samples;Min_cycle;Max_cycle;Signal;HPM_P1;HPM_P2
2022/04/11 00:02:03;;;;;;;;;;;;;;;;;;5013614;28;19926;-75
2022/04/11 00:04:31;;;;;;;;;;;;;;;;;;5023474;28;19953;-74
2022/04/11 00:06:56;;;;;;;;;;;;;;;;;;5021469;28;19921;-74
2022/04/11 00:09:24;;;;;;;;;;;;;;;;;;5007768;28;20414;-74
2022/04/11 00:11:49;;;;;;;;;;;;;;;;;;5024241;28;19913;-75
2022/04/11 00:14:14;;;;;;;;;;;;;;;;;;5026379;28;19909;-74
2022/04/11 00:16:40;;;;;;;;;;;;;;;;;;5020948;28;19936;-75
2022/04/11 00:19:05;;;;;;;;;;;;;;;;;;5009099;28;20012;-75
2022/04/11 00:21:31;;;;;;;;;;;;;;;;;;5036639;28;19924;-75
2022/04/11 00:23:56;;;;;;;;;;;;;;;;;;5008187;28;19913;-75
2022/04/11 00:26:24;;;;;;;;;;;;;;;;;;5026459;28;20003;-74
2022/04/11 00:28:53;;;;;;;;;;;;;;;;;;5028564;28;19917;-74
2022/04/11 00:31:18;;;;;;;;;;;;;;;;;;5025052;28;20012;-74
2022/04/11 00:33:43;;;;;;;;;;;;;;;;;;5026240;28;20075;-75
2022/04/11 00:36:09;;;;;;;;;;;;;;;;;;5012806;28;19913;-74
2022/04/11 00:38:36;;;;;;;;;;;;;;;;;;5025852;28;19979;-74
2022/04/11 00:41:01;;;;;;;;;;;;;;;;;;5026512;28;19912;-75
2022/04/11 00:43:30;;;;;;;;;;;;;;;;;;5026749;28;20264;-74
2022/04/11 00:45:56;;;;;;;;;;;;;;;;;;5030404;28;19951;-73
2022/04/11 00:48:21;;;;;;;;;;;;;;;;;;5027813;28;19913;-74
2022/04/11 00:50:47;;;;;;;;;;;;;;;;;;5027654;28;19913;-75
2022/04/11 00:53:12;;;;;;;;;;;;;;;;;;5019587;28;19920;-74
2022/04/11 00:55:37;;;;;;;;;;;;;;;;;;5027268;28;19928;-75
2022/04/11 00:58:04;;;;;;;;;;;;;;;;;;5008255;28;19917;-75
2022/04/11 01:00:29;;;;;;;;;;;;;;;;;;5023631;28;19956;-75
2022/04/11 01:02:55;;;;;;;;;;;;;;;;;;5024064;28;19957;-75
2022/04/11 01:05:20;;;;;;;;;;;;;;;;;;5027790;28;19920;-74
2022/04/11 01:07:45;;;;;;;;;;;;;;;;;;5020546;28;19935;-75
2022/04/11 01:10:13;;;;;;;;;;;;;;;;;;5008672;28;19944;-75
2022/04/11 01:12:40;;;;;;;;;;;;;;;;;;5025789;28;19920;-75
2022/04/11 01:15:06;;;;;;;;;;;;;;;;;;5017351;28;20561;-76
2022/04/11 01:17:35;;;;;;;;;;;;;;;;;;5023938;28;20004;-75
2022/04/11 01:20:12;;;;;;;;;;;;;;;;;;5029138;28;19913;-75
2022/04/11 01:22:40;;;;;;;;;;;;;;;;;;5024723;28;19913;-75
2022/04/11 01:25:06;;;;;;;;;;;;;;;;;;5026804;28;19920;-75
2022/04/11 01:27:32;;;;;;;;;;;;;;;;;;5025850;28;19913;-75
2022/04/11 01:29:57;;;;;;;;;;;;;;;;;;5005567;28;20348;-75
2022/04/11 01:32:22;;;;;;;;;;;;;;;;;;5025999;28;19913;-75
2022/04/11 01:34:48;;;;;;;;;;;;;;;;;;5022745;28;19971;-75
2022/04/11 01:37:13;;;;;;;;;;;;;;;;;;5027001;28;19924;-76
2022/04/11 01:39:38;;;;;;;;;;;;;;;;;;5025989;28;19914;-75
2022/04/11 01:42:04;;;;;;;;;;;;;;;;;;5024722;28;19917;-75
2022/04/11 01:44:29;;;;;;;;;;;;;;;;;;5026888;28;19921;-75
2022/04/11 01:46:54;;;;;;;;;;;;;;;;;;5024875;28;19920;-76
2022/04/11 01:49:20;;;;;;;;;;;;;;;;;;5027427;28;19917;-75
2022/04/11 01:51:45;;;;;;;;;;;;;;;;;;5024657;28;19919;-74
2022/04/11 01:54:10;;;;;;;;;;;;;;;;;;5023497;28;20026;-75
2022/04/11 01:56:36;;;;;;;;;;;;;;;;;;5020596;28;20003;-76
2022/04/11 01:59:03;;;;;;;;;;;;;;;;;;5025536;28;19919;-76
2022/04/11 02:01:29;;;;;;;;;;;;;;;;;;5024997;28;20427;-75
2022/04/11 02:03:54;;;;;;;;;;;;;;;;;;5029324;28;20003;-76
2022/04/11 02:06:19;;;;;;;;;;;;;;;;;;5008722;28;19919;-75
2022/04/11 02:08:44;;;;;;;;;;;;;;;;;;5018573;28;20315;-76
2022/04/11 02:11:10;;;;;;;;;;;;;;;;;;5024496;28;19921;-75
2022/04/11 02:13:38;;;;;;;;;;;;;;;;;;5025492;28;19913;-74
2022/04/11 02:16:06;;;;;;;;;;;;;;;;;;5026350;28;20303;-75
2022/04/11 02:18:31;;;;;;;;;;;;;;;;;;5009954;28;19920;-75
2022/04/11 02:20:57;;;;;;;;;;;;;;;;;;5021872;28;19921;-75
2022/04/11 02:23:22;;;;;;;;;;;;;;;;;;5022439;28;20283;-74
2022/04/11 02:25:47;;;;;;;;;;;;;;;;;;5022966;28;19920;-75
2022/04/11 02:28:12;;;;;;;;;;;;;;;;;;5009359;28;19939;-75
2022/04/11 02:30:39;;;;;;;;;;;;;;;;;;5017014;28;20396;-75
2022/04/11 02:33:08;;;;;;;;;;;;;;;;;;5018664;28;19920;-75
2022/04/11 02:35:33;;;;;;;;;;;;;;;;;;5027115;28;19913;-75
2022/04/11 02:37:58;;;;;;;;;;;;;;;;;;5007607;28;20261;-75
2022/04/11 02:40:24;;;;;;;;;;;;;;;;;;5004884;28;19921;-74
2022/04/11 02:42:49;;;;;;;;;;;;;;;;;;5025172;28;20368;-75
2022/04/11 02:45:15;;;;;;;;;;;;;;;;;;5028966;28;19916;-75
2022/04/11 02:47:40;;;;;;;;;;;;;;;;;;5027511;28;19920;-75
2022/04/11 02:50:06;;;;;;;;;;;;;;;;;;5024844;28;20364;-75
2022/04/11 02:52:32;;;;;;;;;;;;;;;;;;5026742;28;19913;-75
2022/04/11 02:54:57;;;;;;;;;;;;;;;;;;5009267;28;20486;-75
2022/04/11 02:57:23;;;;;;;;;;;;;;;;;;5021077;28;20005;-76
2022/04/11 02:59:48;;;;;;;;;;;;;;;;;;5006095;28;20279;-75
2022/04/11 03:02:14;;;;;;;;;;;;;;;;;;5024893;28;19994;-75
2022/04/11 03:04:41;;;;;;;;;;;;;;;;;;5023349;28;20319;-75
2022/04/11 03:07:06;;;;;;;;;;;;;;;;;;5002975;28;19925;-75
2022/04/11 03:09:32;;;;;;;;;;;;;;;;;;5019378;28;19917;-75
2022/04/11 03:11:57;;;;;;;;;;;;;;;;;;5025979;28;19909;-74
2022/04/11 03:14:25;;;;;;;;;;;;;;;;;;5038655;28;20225;-73
2022/04/11 03:16:51;;;;;;;;;;;;;;;;;;5001303;28;19937;-75
2022/04/11 03:19:16;;;;;;;;;;;;;;;;;;5018166;28;20368;-75
2022/04/11 03:21:42;;;;;;;;;;;;;;;;;;5020286;28;19920;-75
2022/04/11 03:24:07;;;;;;;;;;;;;;;;;;5025202;28;19919;-75
2022/04/11 03:26:32;;;;;;;;;;;;;;;;;;5013136;28;19920;-75
2022/04/11 03:28:58;;;;;;;;;;;;;;;;;;5025723;28;19917;-76
2022/04/11 03:31:23;;;;;;;;;;;;;;;;;;5025598;28;19948;-75
2022/04/11 03:33:48;;;;;;;;;;;;;;;;;;5020542;28;19913;-76
2022/04/11 03:36:13;;;;;;;;;;;;;;;;;;5020127;28;19921;-75
2022/04/11 03:38:39;;;;;;;;;;;;;;;;;;5010152;28;19937;-76
2022/04/11 03:41:04;;;;;;;;;;;;;;;;;;5012271;28;19955;-75
2022/04/11 03:43:29;;;;;;;;;;;;;;;;;;5011942;28;19917;-75
2022/04/11 03:45:55;;;;;;;;;;;;;;;;;;5021298;28;20338;-75
2022/04/11 03:48:20;;;;;;;;;;;;;;;;;;5001131;28;19913;-75
2022/04/11 03:50:46;;;;;;;;;;;;;;;;;;5018865;28;19920;-74
2022/04/11 03:53:11;;;;;;;;;;;;;;;;;;5023158;28;19913;-75
2022/04/11 03:55:36;;;;;;;;;;;;;;;;;;5021840;28;19913;-75
2022/04/11 03:58:02;;;;;;;;;;;;;;;;;;5027493;28;19913;-75
2022/04/11 04:00:27;;;;;;;;;;;;;;;;;;5008362;28;19920;-75
2022/04/11 04:02:52;;;;;;;;;;;;;;;;;;5002318;28;19913;-75
2022/04/11 04:05:18;;;;;;;;;;;;;;;;;;5024383;28;19924;-75
2022/04/11 04:07:45;;;;;;;;;;;;;;;;;;5031928;28;19909;-75
2022/04/11 04:10:10;;;;;;;;;;;;;;;;;;5004547;28;19917;-75
2022/04/11 04:12:38;;;;;;;;;;;;;;;;;;5026864;28;19935;-75
2022/04/11 04:15:03;;;;;;;;;;;;;;;;;;5031521;28;19909;-75
2022/04/11 04:17:29;;;;;;;;;;;;;;;;;;5025798;28;19920;-75
2022/04/11 04:19:55;;;;;;;;;;;;;;;;;;5009821;28;19913;-75
2022/04/11 04:22:21;;;;;;;;;;;;;;;;;;5029239;28;20004;-74
2022/04/11 04:24:46;;;;;;;;;;;;;;;;;;5020286;28;19917;-75
2022/04/11 04:27:11;;;;;;;;;;;;;;;;;;5028888;28;19913;-75
2022/04/11 04:29:39;;;;;;;;;;;;;;;;;;5026156;28;19921;-75
2022/04/11 04:32:04;;;;;;;;;;;;;;;;;;5029304;28;20650;-75
2022/04/11 04:34:30;;;;;;;;;;;;;;;;;;5010255;28;19917;-75
2022/04/11 04:36:58;;;;;;;;;;;;;;;;;;5027646;28;19925;-75
2022/04/11 04:39:26;;;;;;;;;;;;;;;;;;5031759;28;19963;-75
2022/04/11 04:41:51;;;;;;;;;;;;;;;;;;5027315;28;19917;-75
2022/04/11 04:44:16;;;;;;;;;;;;;;;;;;5026156;28;19928;-74
2022/04/11 04:46:42;;;;;;;;;;;;;;;;;;5030522;28;19913;-75
2022/04/11 04:49:07;;;;;;;;;;;;;;;;;;5023226;28;20329;-75
2022/04/11 04:51:32;;;;;;;;;;;;;;;;;;5023553;28;20294;-74
2022/04/11 04:54:00;;;;;;;;;;;;;;;;;;5029248;28;19913;-74
2022/04/11 04:56:29;;;;;;;;;;;;;;;;;;5014517;28;19928;-76
2022/04/11 04:58:54;;;;;;;;;;;;;;;;;;5029641;28;19982;-76
2022/04/11 05:01:19;;;;;;;;;;;;;;;;;;5022369;28;19917;-75
2022/04/11 05:03:45;;;;;;;;;;;;;;;;;;5022607;28;20382;-76
2022/04/11 05:06:10;;;;;;;;;;;;;;;;;;5022794;28;19912;-76
2022/04/11 05:08:35;;;;;;;;;;;;;;;;;;5012415;28;19964;-76
2022/04/11 05:11:01;;;;;;;;;;;;;;;;;;5009858;28;19919;-75
2022/04/11 05:13:26;;;;;;;;;;;;;;;;;;5013623;28;20283;-76
2022/04/11 05:15:51;;;;;;;;;;;;;;;;;;5009279;28;19923;-76
2022/04/11 05:18:17;;;;;;;;;;;;;;;;;;5022101;28;20330;-76
2022/04/11 05:20:42;;;;;;;;;;;;;;;;;;5028361;28;19913;-77
2022/04/11 05:23:08;;;;;;;;;;;;;;;;;;5014272;28;19913;-76
2022/04/11 05:25:33;;;;;;;;;;;;;;;;;;5023898;28;19914;-76
2022/04/11 05:27:58;;;;;;;;;;;;;;;;;;5010927;28;20288;-76
2022/04/11 05:30:24;;;;;;;;;;;;;;;;;;5005189;28;20315;-76
2022/04/11 05:32:52;;;;;;;;;;;;;;;;;;5019378;28;19927;-76
2022/04/11 05:35:17;;;;;;;;;;;;;;;;;;5026816;28;19921;-75
2022/04/11 05:37:43;;;;;;;;;;;;;;;;;;5019132;28;19913;-76
2022/04/11 05:40:12;;;;;;;;;;;;;;;;;;5024268;28;19936;-76
2022/04/11 05:42:37;;;;;;;;;;;;;;;;;;5024756;28;20337;-76
2022/04/11 05:45:03;;;;;;;;;;;;;;;;;;5018947;28;19920;-75
2022/04/11 05:47:29;;;;;;;;;;;;;;;;;;5011310;28;19917;-77
2022/04/11 05:49:57;;;;;;;;;;;;;;;;;;5015425;28;19924;-79
2022/04/11 05:52:22;;;;;;;;;;;;;;;;;;5025478;28;20276;-79
2022/04/11 05:54:47;;;;;;;;;;;;;;;;;;5015115;28;19920;-79
2022/04/11 05:57:15;;;;;;;;;;;;;;;;;;5030427;28;19981;-78
2022/04/11 05:59:43;;;;;;;;;;;;;;;;;;5024973;28;19921;-77
2022/04/11 06:02:11;;;;;;;;;;;;;;;;;;5029809;23;20391;-62
2022/04/11 06:04:37;;;;;;;;;;;;;;;;;;4967206;28;19925;-62
2022/04/11 06:07:03;;;;;;;;;;;;;;;;;;4970556;28;20325;-60
2022/04/11 06:09:28;;;;;;;;;;;;;;;;;;4969212;28;20004;-60
2022/04/11 06:11:53;;;;;;;;;;;;;;;;;;4972218;28;20351;-60
2022/04/11 06:14:19;;;;;;;;;;;;;;;;;;4966498;28;20215;-61
2022/04/11 06:16:44;;;;;;;;;;;;;;;;;;4943832;28;19925;-61
2022/04/11 06:19:10;;;;;;;;;;;;;;;;;;4962141;28;19953;-60
2022/04/11 06:21:35;;;;;;;;;;;;;;;;;;4961754;28;19961;-61
2022/04/11 06:24:00;;;;;;;;;;;;;;;;;;4963526;28;20331;-62
2022/04/11 06:26:25;;;;;;;;;;;;;;;;;;4963863;28;19919;-61
2022/04/11 06:28:51;;;;;;;;;;;;;;;;;;4964940;28;19922;-61
2022/04/11 06:31:16;;;;;;;;;;;;;;;;;;4964339;28;20430;-61
2022/04/11 06:33:41;;;;;;;;;;;;;;;;;;4965329;28;19921;-61
2022/04/11 06:36:07;;;;;;;;;;;;;;;;;;4967896;28;19914;-61
2022/04/11 06:38:32;;;;;;;;;;;;;;;;;;4965268;28;19969;-61
2022/04/11 06:40:58;;;;;;;;;;;;;;;;;;4964573;28;20008;-61
2022/04/11 06:43:23;;;;;;;;;;;;;;;;;;4966152;28;19925;-61
2022/04/11 06:45:49;;;;;;;;;;;;;;;;;;4963106;28;19990;-62
2022/04/11 06:48:14;;;;;;;;;;;;;;;;;;4967649;28;20037;-61
2022/04/11 06:50:39;;;;;;;;;;;;;;;;;;4963857;28;19926;-61
2022/04/11 06:53:06;;;;;;;;;;;;;;;;;;4958233;28;19933;-61
2022/04/11 06:55:32;;;;;;;;;;;;;;;;;;4965251;28;19921;-61
2022/04/11 06:57:58;;;;;;;;;;;;;;;;;;4962004;28;19977;-61
2022/04/11 07:00:23;;;;;;;;;;;;;;;;;;4964187;28;20355;-61
2022/04/11 07:02:49;;;;;;;;;;;;;;;;;;4966648;28;20520;-61
2022/04/11 07:05:14;;;;;;;;;;;;;;;;;;4967897;28;19925;-61
2022/04/11 07:07:39;;;;;;;;;;;;;;;;;;4967362;28;19922;-60
2022/04/11 07:10:05;;;;;;;;;;;;;;;;;;4969840;28;19961;-60
2022/04/11 07:12:31;;;;;;;;;;;;;;;;;;4965128;28;19924;-62
2022/04/11 07:14:59;;;;;;;;;;;;;;;;;;4967696;28;19972;-61
2022/04/11 07:17:24;;;;;;;;;;;;;;;;;;4966036;28;19914;-61
2022/04/11 07:19:50;;;;;;;;;;;;;;;;;;4969095;28;19969;-59
2022/04/11 07:22:19;;;;;;;;;;;;;;;;;;4968050;28;20016;-61
2022/04/11 07:24:44;;;;;;;;;;;;;;;;;;4959401;28;19921;-61
2022/04/11 07:27:10;;;;;;;;;;;;;;;;;;4963312;28;20307;-61
2022/04/11 07:29:35;;;;;;;;;;;;;;;;;;4964502;28;19995;-59
2022/04/11 07:32:00;;;;;;;;;;;;;;;;;;4964630;28;19925;-62
2022/04/11 07:34:25;;;;;;;;;;;;;;;;;;4966073;28;19933;-62
2022/04/11 07:36:51;;;;;;;;;;;;;;;;;;4951755;28;19983;-62
2022/04/11 07:39:16;;;;;;;;;;;;;;;;;;4968051;28;19914;-62
2022/04/11 07:41:41;;;;;;;;;;;;;;;;;;4968483;28;19910;-62
2022/04/11 07:44:07;;;;;;;;;;;;;;;;;;4968584;28;19925;-62
2022/04/11 07:46:32;;;;;;;;;;;;;;;;;;4963355;28;19925;-62
2022/04/11 07:48:57;;;;;;;;;;;;;;;;;;4969157;28;20001;-61
2022/04/11 07:51:22;;;;;;;;;;;;;;;;;;4971046;28;19917;-62
2022/04/11 07:53:51;;;;;;;;;;;;;;;;;;4964074;28;19965;-61
2022/04/11 07:56:16;;;;;;;;;;;;;;;;;;4967932;28;20335;-61
2022/04/11 07:58:41;;;;;;;;;;;;;;;;;;4970612;28;20037;-62
2022/04/11 08:01:07;;;;;;;;;;;;;;;;;;4962662;28;19921;-61
2022/04/11 08:03:32;;;;;;;;;;;;;;;;;;4964893;28;19941;-61
2022/04/11 08:05:57;;;;;;;;;;;;;;;;;;4967271;28;19910;-62
2022/04/11 08:08:22;;;;;;;;;;;;;;;;;;4963913;28;20004;-61
2022/04/11 08:10:48;;;;;;;;;;;;;;;;;;4963243;28;19937;-61
2022/04/11 08:13:13;;;;;;;;;;;;;;;;;;4961398;28;19918;-61
2022/04/11 08:15:38;;;;;;;;;;;;;;;;;;4965361;28;19925;-62
2022/04/11 08:18:04;;;;;;;;;;;;;;;;;;4965270;28;20271;-62
2022/04/11 08:20:29;;;;;;;;;;;;;;;;;;4955921;28;20277;-60
2022/04/11 08:22:55;;;;;;;;;;;;;;;;;;4963602;28;19940;-60
2022/04/11 08:25:20;;;;;;;;;;;;;;;;;;4960789;28;19922;-62
2022/04/11 08:27:46;;;;;;;;;;;;;;;;;;4964118;28;19922;-62
2022/04/11 08:30:12;;;;;;;;;;;;;;;;;;4968847;28;19923;-61
2022/04/11 08:32:41;;;;;;;;;;;;;;;;;;4962471;28;20038;-61
2022/04/11 08:35:08;;;;;;;;;;;;;;;;;;4964287;28;19925;-61
2022/04/11 08:37:37;;;;;;;;;;;;;;;;;;4969659;28;19920;-62
2022/04/11 08:40:05;;;;;;;;;;;;;;;;;;4971668;28;19921;-61
2022/04/11 08:42:30;;;;;;;;;;;;;;;;;;4958672;28;20008;-62
2022/04/11 08:44:57;;;;;;;;;;;;;;;;;;4962399;28;20558;-61
2022/04/11 08:47:22;;;;;;;;;;;;;;;;;;4954482;28;20395;-61
2022/04/11 08:49:48;;;;;;;;;;;;;;;;;;4967389;28;19968;-60
2022/04/11 08:52:14;;;;;;;;;;;;;;;;;;4962230;28;19922;-60
2022/04/11 08:54:39;;;;;;;;;;;;;;;;;;4970791;28;19925;-61
2022/04/11 08:57:05;;;;;;;;;;;;;;;;;;4965884;28;20098;-61
2022/04/11 08:59:33;;;;;;;;;;;;;;;;;;4961973;28;19918;-61
2022/04/11 09:01:58;;;;;;;;;;;;;;;;;;4957208;28;19925;-61
2022/04/11 09:04:24;;;;;;;;;;;;;;;;;;4963854;28;19914;-60
2022/04/11 09:06:56;;;;;;;;;;;;;;;;;;4960636;28;19933;-61
2022/04/11 09:09:41;;;;;;;;;;;;;;;;;;4967001;28;19968;-61
2022/04/11 09:12:14;;;;;;;;;;;;;;;;;;4965084;28;20363;-61
2022/04/11 09:14:40;;;;;;;;;;;;;;;;;;4971021;28;20012;-61
2022/04/11 09:17:06;;;;;;;;;;;;;;;;;;4970946;28;19914;-61
2022/04/11 09:19:31;;;;;;;;;;;;;;;;;;4969118;28;19944;-60
2022/04/11 09:21:57;;;;;;;;;;;;;;;;;;4964569;28;20343;-61
2022/04/11 09:24:25;;;;;;;;;;;;;;;;;;4965737;28;20008;-61
2022/04/11 09:26:54;;;;;;;;;;;;;;;;;;4970547;28;19920;-61
2022/04/11 09:29:19;;;;;;;;;;;;;;;;;;4969261;28;19926;-61
2022/04/11 09:31:45;;;;;;;;;;;;;;;;;;4955819;28;20009;-59
2022/04/11 09:34:13;;;;;;;;;;;;;;;;;;4961127;28;20356;-59
2022/04/11 09:36:54;;;;;;;;;;;;;;;;;;4964271;28;20030;-61
2022/04/11 09:39:26;;;;;;;;;;;;;;;;;;4966306;28;19918;-62
2022/04/11 09:41:51;;;;;;;;;;;;;;;;;;4962081;28;20021;-61
2022/04/11 09:44:30;;;;;;;;;;;;;;;;;;4962768;28;20032;-62
2022/04/11 09:46:57;;;;;;;;;;;;;;;;;;4963128;28;19943;-59
2022/04/11 09:49:23;;;;;;;;;;;;;;;;;;4959432;28;19922;-62
2022/04/11 09:52:03;;;;;;;;;;;;;;;;;;4962623;28;19921;-62
2022/04/11 09:54:29;;;;;;;;;;;;;;;;;;4968805;28;19945;-61
2022/04/11 09:56:54;;;;;;;;;;;;;;;;;;4964944;28;20012;-62
2022/04/11 09:59:23;;;;;;;;;;;;;;;;;;4962528;28;19917;-62
2022/04/11 10:01:50;;;;;;;;;;;;;;;;;;4963021;28;19914;-61
2022/04/11 10:04:16;;;;;;;;;;;;;;;;;;4965989;28;19918;-62
2022/04/11 10:06:42;;;;;;;;;;;;;;;;;;4960371;28;19930;-61
2022/04/11 10:09:07;;;;;;;;;;;;;;;;;;4963413;28;19914;-62
2022/04/11 10:11:33;;;;;;;;;;;;;;;;;;4965522;28;19929;-62
2022/04/11 10:13:59;;;;;;;;;;;;;;;;;;4964552;28;20388;-61
2022/04/11 10:16:25;;;;;;;;;;;;;;;;;;4972667;28;20013;-61
2022/04/11 10:18:50;;;;;;;;;;;;;;;;;;4967592;28;19922;-63
2022/04/11 10:21:15;;;;;;;;;;;;;;;;;;4967625;28;19917;-62
2022/04/11 10:23:47;;;;;;;;;;;;;;;;;;4967331;28;19924;-62
2022/04/11 10:26:14;;;;;;;;;;;;;;;;;;4959543;28;19914;-62
2022/04/11 10:28:43;;;;;;;;;;;;;;;;;;4959255;28;20303;-62
2022/04/11 10:31:10;;;;;;;;;;;;;;;;;;4963775;28;20335;-60
2022/04/11 10:33:49;;;;;;;;;;;;;;;;;;4963555;28;19918;-61
2022/04/11 10:36:31;;;;;;;;;;;;;;;;;;4963019;28;19917;-60
2022/04/11 10:39:14;;;;;;;;;;;;;;;;;;4962790;28;19914;-61
2022/04/11 10:41:58;;;;;;;;;;;;;;;;;;4966396;28;19940;-59
2022/04/11 10:44:30;;;;;;;;;;;;;;;;;;4961256;28;19918;-59
2022/04/11 10:47:07;;;;;;;;;;;;;;;;;;4959394;28;19929;-59
2022/04/11 10:49:59;;;;;;;;;;;;;;;;;;4962413;28;20447;-59
2022/04/11 10:52:28;;;;;;;;;;;;;;;;;;4962672;28;19927;-60
2022/04/11 10:54:54;;;;;;;;;;;;;;;;;;4960812;28;19918;-59
2022/04/11 10:57:38;;;;;;;;;;;;;;;;;;4959409;28;19914;-61
2022/04/11 11:00:06;;;;;;;;;;;;;;;;;;4966020;28;20288;-61
2022/04/11 11:05:21;;;;;;;;;;;;;;;;;;4956216;28;20338;-61
2022/04/11 11:07:46;;;;;;;;;;;;;;;;;;4958350;28;20012;-61
2022/04/11 11:10:12;;;;;;;;;;;;;;;;;;4964673;28;20004;-61
2022/04/11 11:12:37;;;;;;;;;;;;;;;;;;4959676;28;20438;-62
2022/04/11 11:15:21;;;;;;;;;;;;;;;;;;4960971;28;20500;-61
2022/04/11 11:17:53;;;;;;;;;;;;;;;;;;4959556;28;20395;-61
2022/04/11 11:20:19;;;;;;;;;;;;;;;;;;4953657;28;19918;-61
2022/04/11 11:23:04;;;;;;;;;;;;;;;;;;4956993;28;19914;-61
2022/04/11 11:25:30;;;;;;;;;;;;;;;;;;4953991;28;20339;-61
2022/04/11 11:27:55;;;;;;;;;;;;;;;;;;4955229;28;19918;-61
2022/04/11 11:30:21;;;;;;;;;;;;;;;;;;4953605;28;20041;-60
2022/04/11 11:32:47;;;;;;;;;;;;;;;;;;4960365;28;19917;-62
2022/04/11 11:35:12;;;;;;;;;;;;;;;;;;4960870;28;19914;-61
2022/04/11 11:37:38;;;;;;;;;;;;;;;;;;4964138;28;19917;-61
2022/04/11 11:40:04;;;;;;;;;;;;;;;;;;4959817;28;19914;-61
2022/04/11 11:42:36;;;;;;;;;;;;;;;;;;4962078;28;19924;-61
2022/04/11 11:45:02;;;;;;;;;;;;;;;;;;4958481;28;19921;-60
2022/04/11 11:47:28;;;;;;;;;;;;;;;;;;4964209;28;19914;-61
2022/04/11 11:49:59;;;;;;;;;;;;;;;;;;4957990;28;19942;-61
2022/04/11 11:52:25;;;;;;;;;;;;;;;;;;4957897;28;19913;-60
2022/04/11 11:54:52;;;;;;;;;;;;;;;;;;4957476;28;19984;-61
2022/04/11 11:57:24;;;;;;;;;;;;;;;;;;4961268;28;20271;-60
2022/04/11 11:59:53;;;;;;;;;;;;;;;;;;4967228;28;20400;-60
2022/04/11 12:05:13;;;;;;;;;;;;;;;;;;4958206;28;19969;-63
2022/04/11 12:07:38;;;;;;;;;;;;;;;;;;4961287;28;19922;-62
2022/04/11 12:10:06;;;;;;;;;;;;;;;;;;4962844;28;19981;-62
2022/04/11 12:12:32;;;;;;;;;;;;;;;;;;4944882;28;20303;-60
2022/04/11 12:14:58;;;;;;;;;;;;;;;;;;4960559;28;19909;-63
2022/04/11 12:17:29;;;;;;;;;;;;;;;;;;4961063;28;19961;-63
2022/04/11 12:20:04;;;;;;;;;;;;;;;;;;4955584;28;19918;-62
2022/04/11 12:22:29;;;;;;;;;;;;;;;;;;4957737;28;19914;-63
2022/04/11 12:24:54;;;;;;;;;;;;;;;;;;4949989;28;19918;-63
2022/04/11 12:27:20;;;;;;;;;;;;;;;;;;4960504;28;19914;-63
2022/04/11 12:29:46;;;;;;;;;;;;;;;;;;4969370;28;19968;-63
2022/04/11 12:32:12;;;;;;;;;;;;;;;;;;4962405;28;19961;-64
2022/04/11 12:34:39;;;;;;;;;;;;;;;;;;4966387;28;20024;-63
2022/04/11 12:37:05;;;;;;;;;;;;;;;;;;4968866;28;20346;-61
2022/04/11 12:39:31;;;;;;;;;;;;;;;;;;4971550;28;20020;-61
2022/04/11 12:41:57;;;;;;;;;;;;;;;;;;4971188;28;19992;-62
2022/04/11 12:44:35;;;;;;;;;;;;;;;;;;4968083;28;20380;-62
2022/04/11 12:47:00;;;;;;;;;;;;;;;;;;4971933;28;19921;-62
2022/04/11 12:49:41;;;;;;;;;;;;;;;;;;4976002;28;20414;-61
2022/04/11 12:52:09;;;;;;;;;;;;;;;;;;4967355;28;20331;-63
2022/04/11 12:54:36;;;;;;;;;;;;;;;;;;4968485;28;20335;-61
2022/04/11 12:57:02;;;;;;;;;;;;;;;;;;4970213;28;20319;-62
2022/04/11 12:59:29;;;;;;;;;;;;;;;;;;4972041;28;19917;-61
2022/04/11 13:02:11;;;;;;;;;;;;;;;;;;4970346;28;19937;-62
2022/04/11 13:04:38;;;;;;;;;;;;;;;;;;4967439;28;20020;-61
2022/04/11 13:07:04;;;;;;;;;;;;;;;;;;4972612;28;19914;-62
2022/04/11 13:09:29;;;;;;;;;;;;;;;;;;4969325;28;19972;-62
2022/04/11 13:11:55;;;;;;;;;;;;;;;;;;4969917;28;19918;-62
2022/04/11 13:14:21;;;;;;;;;;;;;;;;;;4962860;28;20311;-62
2022/04/11 13:19:30;;;;;;;;;;;;;;;;;;4957686;28;19982;-63
2022/04/11 13:21:55;;;;;;;;;;;;;;;;;;4952926;28;20360;-62
2022/04/11 13:24:20;;;;;;;;;;;;;;;;;;4954628;28;20359;-61
2022/04/11 13:26:46;;;;;;;;;;;;;;;;;;4958410;28;19973;-62
2022/04/11 13:29:11;;;;;;;;;;;;;;;;;;4970396;28;19918;-62
2022/04/11 13:31:37;;;;;;;;;;;;;;;;;;4966195;28;20182;-62
2022/04/11 13:34:02;;;;;;;;;;;;;;;;;;4965286;28;20313;-62
2022/04/11 13:36:29;;;;;;;;;;;;;;;;;;4961857;28;19965;-63
2022/04/11 13:38:55;;;;;;;;;;;;;;;;;;4965037;28;19966;-62
2022/04/11 13:41:20;;;;;;;;;;;;;;;;;;4965153;28;19914;-62
2022/04/11 13:43:46;;;;;;;;;;;;;;;;;;4967149;28;20402;-62
2022/04/11 13:46:11;;;;;;;;;;;;;;;;;;4947683;28;19914;-61
2022/04/11 13:48:36;;;;;;;;;;;;;;;;;;4957572;28;20296;-62
2022/04/11 13:51:01;;;;;;;;;;;;;;;;;;4957981;28;20435;-62
2022/04/11 13:53:29;;;;;;;;;;;;;;;;;;4960268;28;20057;-62
2022/04/11 13:55:55;;;;;;;;;;;;;;;;;;4961588;28;19918;-62
2022/04/11 13:58:21;;;;;;;;;;;;;;;;;;4958752;28;19921;-62
2022/04/11 14:00:46;;;;;;;;;;;;;;;;;;4959402;28;19919;-62
2022/04/11 14:03:12;;;;;;;;;;;;;;;;;;4960120;28;19964;-61
2022/04/11 14:05:37;;;;;;;;;;;;;;;;;;4966266;28;19918;-61
2022/04/11 14:08:02;;;;;;;;;;;;;;;;;;4965879;28;19914;-62
2022/04/11 14:10:28;;;;;;;;;;;;;;;;;;4964504;28;20002;-62
2022/04/11 14:12:53;;;;;;;;;;;;;;;;;;4967779;28;19929;-62
2022/04/11 14:15:18;;;;;;;;;;;;;;;;;;4968489;28;19933;-62
2022/04/11 14:17:44;;;;;;;;;;;;;;;;;;4966087;28;19914;-62
2022/04/11 14:20:09;;;;;;;;;;;;;;;;;;4965357;28;19914;-62
2022/04/11 14:22:34;;;;;;;;;;;;;;;;;;4959231;28;19965;-62
2022/04/11 14:25:00;;;;;;;;;;;;;;;;;;4956635;28;20339;-62
2022/04/11 14:27:25;;;;;;;;;;;;;;;;;;4967585;28;19959;-62
2022/04/11 14:29:50;;;;;;;;;;;;;;;;;;4966227;28;19913;-62
2022/04/11 14:32:16;;;;;;;;;;;;;;;;;;4963152;28;19918;-62
2022/04/11 14:34:41;;;;;;;;;;;;;;;;;;4960079;28;19950;-61
2022/04/11 14:37:06;;;;;;;;;;;;;;;;;;4957819;28;19945;-62
2022/04/11 14:39:33;;;;;;;;;;;;;;;;;;4959940;28;19922;-62
2022/04/11 14:41:59;;;;;;;;;;;;;;;;;;4961031;28;19914;-62
2022/04/11 14:44:24;;;;;;;;;;;;;;;;;;4967057;28;19960;-62
2022/04/11 14:46:50;;;;;;;;;;;;;;;;;;4967288;28;19949;-61
2022/04/11 14:49:15;;;;;;;;;;;;;;;;;;4961609;28;19994;-59
2022/04/11 14:51:40;;;;;;;;;;;;;;;;;;4965445;28;20005;-58
2022/04/11 14:54:06;;;;;;;;;;;;;;;;;;4966622;28;19918;-60
2022/04/11 14:56:32;;;;;;;;;;;;;;;;;;4959061;28;19968;-59
2022/04/11 14:58:58;;;;;;;;;;;;;;;;;;4965951;28;19930;-59
2022/04/11 15:01:24;;;;;;;;;;;;;;;;;;4957985;28;20300;-60
2022/04/11 15:03:49;;;;;;;;;;;;;;;;;;4966965;28;19913;-60
2022/04/11 15:06:14;;;;;;;;;;;;;;;;;;4965380;28;19914;-59
2022/04/11 15:08:40;;;;;;;;;;;;;;;;;;4964671;28;19922;-60
2022/04/11 15:11:06;;;;;;;;;;;;;;;;;;4966186;28;19917;-59
2022/04/11 15:13:31;;;;;;;;;;;;;;;;;;4960659;28;20013;-59
2022/04/11 15:15:56;;;;;;;;;;;;;;;;;;4960653;28;20013;-59
2022/04/11 15:18:22;;;;;;;;;;;;;;;;;;4970714;28;20310;-59
2022/04/11 15:20:47;;;;;;;;;;;;;;;;;;4961755;28;19941;-59
2022/04/11 15:23:12;;;;;;;;;;;;;;;;;;4961662;28;19914;-59
2022/04/11 15:25:38;;;;;;;;;;;;;;;;;;4960779;28;19914;-59
2022/04/11 15:28:03;;;;;;;;;;;;;;;;;;4951748;28;19973;-60
2022/04/11 15:30:28;;;;;;;;;;;;;;;;;;4963073;28;19913;-62
2022/04/11 15:32:54;;;;;;;;;;;;;;;;;;4967241;28;19921;-61
2022/04/11 15:35:19;;;;;;;;;;;;;;;;;;4962672;28;20369;-63
2022/04/11 15:37:44;;;;;;;;;;;;;;;;;;4965246;28;19914;-62
2022/04/11 15:40:13;;;;;;;;;;;;;;;;;;4963404;28;19918;-61
2022/04/11 15:42:39;;;;;;;;;;;;;;;;;;4960645;28;20478;-60
2022/04/11 15:45:05;;;;;;;;;;;;;;;;;;4959038;28;19918;-59
2022/04/11 15:47:30;;;;;;;;;;;;;;;;;;4962092;28;19918;-63
2022/04/11 15:49:56;;;;;;;;;;;;;;;;;;4965453;28;19965;-64
2022/04/11 15:52:21;;;;;;;;;;;;;;;;;;4965206;28;19941;-61
2022/04/11 15:54:46;;;;;;;;;;;;;;;;;;4958236;28;19961;-62
2022/04/11 15:57:12;;;;;;;;;;;;;;;;;;4967032;28;19938;-62
2022/04/11 15:59:37;;;;;;;;;;;;;;;;;;4964013;28;19918;-62
2022/04/11 16:02:04;;;;;;;;;;;;;;;;;;4964893;28;20013;-62
2022/04/11 16:04:29;;;;;;;;;;;;;;;;;;4967483;28;19914;-62
2022/04/11 16:06:55;;;;;;;;;;;;;;;;;;4966753;28;19914;-63
2022/04/11 16:09:21;;;;;;;;;;;;;;;;;;4964367;28;20356;-60
2022/04/11 16:11:46;;;;;;;;;;;;;;;;;;4958473;28;19955;-61
2022/04/11 16:14:11;;;;;;;;;;;;;;;;;;4954289;28;19918;-58
2022/04/11 16:16:38;;;;;;;;;;;;;;;;;;4958047;28;20027;-58
2022/04/11 16:19:03;;;;;;;;;;;;;;;;;;4967613;28;19918;-58
2022/04/11 16:21:28;;;;;;;;;;;;;;;;;;4969195;28;20021;-58
2022/04/11 16:23:54;;;;;;;;;;;;;;;;;;4963239;28;19917;-60
2022/04/11 16:26:19;;;;;;;;;;;;;;;;;;4968448;28;20399;-61
2022/04/11 16:28:46;;;;;;;;;;;;;;;;;;4962279;28;19921;-60
2022/04/11 16:31:12;;;;;;;;;;;;;;;;;;4966237;28;20335;-60
2022/04/11 16:33:38;;;;;;;;;;;;;;;;;;4961770;28;19921;-60
2022/04/11 16:36:03;;;;;;;;;;;;;;;;;;4954945;28;19984;-60
2022/04/11 16:38:28;;;;;;;;;;;;;;;;;;4963225;28;19914;-60
2022/04/11 16:40:54;;;;;;;;;;;;;;;;;;4962154;28;20041;-61
2022/04/11 16:43:19;;;;;;;;;;;;;;;;;;4963081;28;19918;-60
2022/04/11 16:45:44;;;;;;;;;;;;;;;;;;4960284;28;19966;-60
2022/04/11 16:48:10;;;;;;;;;;;;;;;;;;4958700;28;19946;-60
2022/04/11 16:50:35;;;;;;;;;;;;;;;;;;4966623;28;20374;-60